0TS2 weather

Ultralight International Ultralightport
Haslet, Texas, United States

Public forecast

Using degrees Fahrenheit for public forecast. Weather courtesy of forecast.io.

METAR (pilot weather report)

Closest report is Fort Worth Alliance Airport, 2.4 nm (4.4 km) NNE. Retrieved 2019/09/24 06:53 UTC (1 hour ago):

KAFW 240653Z 17010KT 10SM FEW080 27/22 A2995 RMK AO2 SLP124 T02720217

TAF (pilot weather forecast)

Closest forecast is Fort Worth Alliance Airport, 2.4 nm (4.4 km) NNE. Retrieved 2019/09/24 06:22 UTC (2 hours ago):

TAF KAFW 240520Z 2406/2506 14008KT P6SM FEW050 BKN100 FM242100 16009KT P6SM VCTS BKN060CB FM250000 15009KT P6SM BKN100